createdAt,value
2022-09-11T00:00:41.873Z,95362.19
2022-09-11T00:03:08.293Z,95330.88
2022-09-11T00:05:39.349Z,95240.69
2022-09-11T00:08:07.721Z,95172.22
2022-09-11T00:10:37.284Z,95134.84
2022-09-11T00:13:04.247Z,95122.03
2022-09-11T00:15:30.714Z,95081.84
2022-09-11T00:17:57.110Z,95037.16
2022-09-11T00:20:23.500Z,95009.91
2022-09-11T00:22:49.911Z,95003.03
2022-09-11T00:25:16.432Z,94991.25
2022-09-11T00:27:42.808Z,94956.75
2022-09-11T00:30:10.072Z,94908.66
2022-09-11T00:32:36.449Z,94884.28
2022-09-11T00:35:02.843Z,94861.38
2022-09-11T00:37:29.217Z,94843.53
2022-09-11T00:39:55.644Z,94747.56
2022-09-11T00:42:22.036Z,94666.53
2022-09-11T00:45:00.330Z,94598.72
2022-09-11T00:47:26.776Z,94597.56
2022-09-11T00:49:54.301Z,94556.78
2022-09-11T00:52:27.156Z,94489.22
2022-09-11T00:54:56.399Z,94477.50
2022-09-11T00:57:24.553Z,94475.53
2022-09-11T00:59:51.019Z,94497.06
2022-09-11T01:02:18.960Z,94487.31
2022-09-11T01:04:45.362Z,94459.78
2022-09-11T01:07:12.541Z,94471.94
2022-09-11T01:09:39.054Z,94463.06
2022-09-11T01:12:14.852Z,94473.28
2022-09-11T01:14:59.854Z,94505.19
2022-09-11T01:18:00.304Z,94555.72
2022-09-11T01:21:03.773Z,94584.56
2022-09-11T01:23:39.396Z,94517.66
2022-09-11T01:26:24.603Z,94413.31
2022-09-11T01:29:02.171Z,94357.34
2022-09-11T01:31:31.719Z,94352.50
2022-09-11T01:34:00.167Z,94324.09
2022-09-11T01:36:29.351Z,94270.88
2022-09-11T01:38:58.116Z,94212.44
2022-09-11T01:41:35.958Z,94192.59
2022-09-11T01:44:36.481Z,94193.84
2022-09-11T01:47:04.306Z,94238.56
2022-09-11T01:49:49.301Z,94231.69
2022-09-11T01:52:20.891Z,94216.66
2022-09-11T01:54:51.132Z,94157.84
2022-09-11T01:57:22.230Z,94013.38
2022-09-11T01:59:50.932Z,94009.84
2022-09-11T02:02:20.601Z,94066.81
2022-09-11T02:04:50.079Z,94089.50
2022-09-11T02:07:19.319Z,94084.69
2022-09-11T02:09:57.274Z,94074.97
2022-09-11T02:12:25.887Z,94060.75
2022-09-11T02:14:53.367Z,94050.53
2022-09-11T02:17:50.283Z,94021.19
2022-09-11T02:20:16.741Z,93998.03
2022-09-11T02:22:43.230Z,93990.09
2022-09-11T02:25:09.787Z,93981.09
2022-09-11T02:27:36.996Z,93848.78
2022-09-11T02:30:03.724Z,93805.66
2022-09-11T02:32:30.151Z,93771.94
2022-09-11T02:34:56.551Z,93708.50
2022-09-11T02:37:41.668Z,93580.16
2022-09-11T02:40:39.568Z,93524.56
2022-09-11T02:43:33.456Z,93454.91
2022-09-11T02:46:31.022Z,93393.91
2022-09-11T02:49:20.588Z,93370.63
2022-09-11T02:51:54.191Z,93330.81
2022-09-11T02:54:28.274Z,93311.72
2022-09-11T02:57:02.234Z,93177.81
2022-09-11T02:59:40.962Z,93019.00
2022-09-11T03:02:10.314Z,92993.47
2022-09-11T03:04:37.188Z,93004.44
2022-09-11T03:07:03.680Z,93001.50
2022-09-11T03:09:30.192Z,93001.69
2022-09-11T03:11:56.611Z,92987.19
2022-09-11T03:14:22.975Z,91965.25
2022-09-11T03:16:49.985Z,91957.41
2022-09-11T03:19:16.440Z,91927.75
2022-09-11T03:21:42.955Z,91892.19
2022-09-11T03:24:09.629Z,91899.16
2022-09-11T03:26:36.817Z,91887.38
2022-09-11T03:29:03.638Z,91887.97
2022-09-11T03:31:30.205Z,91840.25
2022-09-11T03:33:57.186Z,91828.66
2022-09-11T03:36:23.846Z,91840.88
2022-09-11T03:38:50.223Z,91834.53
2022-09-11T03:41:16.604Z,91847.50
2022-09-11T03:43:43.163Z,91838.25
2022-09-11T03:46:09.717Z,91809.00
2022-09-11T03:48:36.200Z,91798.22
2022-09-11T03:51:04.711Z,91792.44
2022-09-11T03:53:32.886Z,91770.84
2022-09-11T03:56:00.294Z,92305.53
2022-09-11T03:58:26.729Z,92305.00
2022-09-11T04:00:53.161Z,92302.91
2022-09-11T04:03:19.555Z,92295.00
2022-09-11T04:05:56.688Z,92282.38
2022-09-11T04:08:23.056Z,92272.63
2022-09-11T04:10:49.442Z,92234.47
2022-09-11T04:13:16.669Z,92191.78
2022-09-11T04:15:43.086Z,92179.72
2022-09-11T04:18:09.570Z,92146.00
2022-09-11T04:20:38.822Z,92107.78
2022-09-11T04:23:05.188Z,92081.19
2022-09-11T04:25:31.565Z,92054.88
2022-09-11T04:27:57.948Z,92009.03
2022-09-11T04:30:24.395Z,91982.97
2022-09-11T04:32:50.767Z,91961.13
2022-09-11T04:35:17.167Z,91936.34
2022-09-11T04:37:43.574Z,91910.59
2022-09-11T04:40:10.184Z,91864.72
2022-09-11T04:42:36.670Z,91832.59
2022-09-11T04:45:04.509Z,91803.03
2022-09-11T04:47:30.904Z,91814.78
2022-09-11T04:49:57.407Z,91798.34
2022-09-11T04:52:25.067Z,91791.09
2022-09-11T04:54:51.456Z,91743.56
2022-09-11T04:57:17.815Z,91709.78
2022-09-11T04:59:44.202Z,91702.22
2022-09-11T05:02:10.885Z,91670.91
2022-09-11T05:04:37.347Z,91633.97
2022-09-11T05:07:03.840Z,91610.19
2022-09-11T05:09:30.268Z,91602.78
2022-09-11T05:11:57.099Z,91574.53
2022-09-11T05:14:23.503Z,91582.72
2022-09-11T05:16:52.487Z,91577.44
2022-09-11T05:19:19.061Z,91561.66
2022-09-11T05:21:45.463Z,91564.09
2022-09-11T05:24:11.842Z,91551.28
2022-09-11T05:26:38.388Z,91538.41
2022-09-11T05:29:09.701Z,91494.91
2022-09-11T05:31:37.185Z,91448.13
2022-09-11T05:34:03.768Z,91430.78
2022-09-11T05:36:33.466Z,91402.66
2022-09-11T05:38:59.889Z,91374.31
2022-09-11T05:41:26.354Z,91353.72
2022-09-11T05:43:52.759Z,91334.22
2022-09-11T05:46:19.923Z,91291.63
2022-09-11T05:48:46.382Z,91289.56
2022-09-11T05:51:14.300Z,91256.81
2022-09-11T05:53:41.001Z,91238.84
2022-09-11T05:56:12.185Z,91228.81
2022-09-11T05:58:38.584Z,91195.53
2022-09-11T06:01:18.802Z,91182.84
2022-09-11T06:03:47.348Z,91148.78
2022-09-11T06:06:13.783Z,91123.69
2022-09-11T06:08:42.668Z,91120.59
2022-09-11T06:11:09.097Z,91116.88
2022-09-11T06:13:39.431Z,91097.88
2022-09-11T06:16:11.247Z,91078.22
2022-09-11T06:18:39.934Z,91046.00
2022-09-11T06:21:07.996Z,91044.44
2022-09-11T06:23:35.189Z,91043.84
2022-09-11T06:26:12.659Z,91031.75
2022-09-11T06:28:39.436Z,91032.69
2022-09-11T06:31:08.223Z,90999.41
2022-09-11T06:33:36.152Z,90989.03
2022-09-11T06:36:04.252Z,90998.91
2022-09-11T06:38:31.875Z,90975.56
2022-09-11T06:41:02.237Z,90961.59
2022-09-11T06:43:28.806Z,90979.72
2022-09-11T06:45:55.225Z,90969.19
2022-09-11T06:48:21.636Z,90963.31
2022-09-11T06:50:48.016Z,90953.53
2022-09-11T06:53:15.206Z,90928.94
2022-09-11T06:55:41.653Z,90914.66
2022-09-11T06:58:08.489Z,90910.31
2022-09-11T07:00:36.106Z,90897.75
2022-09-11T07:03:03.464Z,90867.56
2022-09-11T07:05:30.069Z,90869.88
2022-09-11T07:07:56.648Z,90847.69
2022-09-11T07:10:23.281Z,90870.47
2022-09-11T07:12:52.018Z,90826.16
2022-09-11T07:15:18.503Z,90827.84
2022-09-11T07:17:44.894Z,90788.81
2022-09-11T07:20:11.376Z,90817.63
2022-09-11T07:22:38.239Z,90777.31
2022-09-11T07:25:07.693Z,90786.19
2022-09-11T07:27:34.295Z,90756.09
2022-09-11T07:30:00.670Z,90769.88
2022-09-11T07:32:27.192Z,90773.63
2022-09-11T07:34:53.630Z,90724.03
2022-09-11T07:37:20.030Z,90706.50
2022-09-11T07:39:47.086Z,90681.81
2022-09-11T07:42:13.533Z,90666.50
2022-09-11T07:44:39.941Z,90655.28
2022-09-11T07:47:06.592Z,90656.09
2022-09-11T07:49:32.951Z,90651.72
2022-09-11T07:51:59.349Z,90681.81
2022-09-11T07:54:29.019Z,90709.59
2022-09-11T07:56:56.067Z,90733.63
2022-09-11T07:59:22.863Z,90812.22
2022-09-11T08:01:50.199Z,90779.22
2022-09-11T08:04:16.666Z,90773.91
2022-09-11T08:06:43.055Z,90790.03
2022-09-11T08:09:11.289Z,90795.63
2022-09-11T08:11:43.011Z,90820.13
2022-09-11T08:14:11.680Z,90813.63
2022-09-11T08:16:38.790Z,90785.38
2022-09-11T08:19:05.614Z,90802.28
2022-09-11T08:21:32.155Z,90824.13
2022-09-11T08:23:58.583Z,90810.16
2022-09-11T08:26:26.434Z,90820.09
2022-09-11T08:28:53.822Z,90843.34
2022-09-11T08:31:21.909Z,90841.19
2022-09-11T08:33:49.286Z,90851.44
2022-09-11T08:36:15.763Z,90888.50
2022-09-11T08:38:43.256Z,90906.97
2022-09-11T08:41:11.039Z,90909.44
2022-09-11T08:43:39.721Z,90933.47
2022-09-11T08:46:07.612Z,90920.31
2022-09-11T08:49:02.192Z,90908.50
2022-09-11T08:51:28.577Z,90913.34
2022-09-11T08:53:55.024Z,90936.59
2022-09-11T08:56:22.561Z,90929.59
2022-09-11T08:59:45.960Z,90923.06
2022-09-11T09:02:18.361Z,90861.13
2022-09-11T09:05:14.509Z,90827.91
2022-09-11T09:07:45.178Z,90852.00
2022-09-11T09:10:33.631Z,90804.81
2022-09-11T09:13:20.830Z,90816.16
2022-09-11T09:15:53.249Z,90792.66
2022-09-11T09:18:34.683Z,90779.59
2022-09-11T09:21:06.682Z,90803.34
2022-09-11T09:23:37.793Z,90854.75
2022-09-11T09:26:04.168Z,90876.16
2022-09-11T09:28:52.697Z,90921.50
2022-09-11T09:31:23.005Z,90944.94
2022-09-11T09:34:00.354Z,90954.06
2022-09-11T09:36:43.509Z,90961.53
2022-09-11T09:39:12.813Z,91047.88
2022-09-11T09:41:59.060Z,91053.78
2022-09-11T09:44:50.437Z,91062.31
2022-09-11T09:47:16.867Z,91051.13
2022-09-11T09:49:43.493Z,91069.44
2022-09-11T09:52:24.281Z,91124.94
2022-09-11T09:55:00.047Z,91173.25
2022-09-11T09:57:29.151Z,91224.25
2022-09-11T10:00:06.647Z,91339.91
2022-09-11T10:02:49.069Z,91484.78
2022-09-11T10:05:16.976Z,91736.63
2022-09-11T10:07:50.894Z,91825.97
2022-09-11T10:10:29.602Z,91729.84
2022-09-11T10:13:17.717Z,91894.88
2022-09-11T10:15:44.063Z,92374.22
2022-09-11T10:18:29.031Z,92633.47
2022-09-11T10:21:22.474Z,92812.63
2022-09-11T10:23:50.455Z,92709.94
2022-09-11T10:26:18.800Z,93065.72
2022-09-11T10:28:46.310Z,93483.06
2022-09-11T10:31:18.745Z,93241.59
2022-09-11T10:33:56.652Z,93696.28
2022-09-11T10:36:25.039Z,94063.09
2022-09-11T10:38:51.891Z,94096.81
2022-09-11T10:41:34.132Z,94150.38
2022-09-11T10:44:02.311Z,94240.00
2022-09-11T10:46:29.974Z,94352.31
2022-09-11T10:49:06.074Z,94425.19
2022-09-11T10:51:42.136Z,94350.84
2022-09-11T10:54:16.747Z,94436.84
2022-09-11T10:56:57.820Z,94355.78
2022-09-11T10:59:31.232Z,94393.66
2022-09-11T11:01:58.222Z,94409.03
2022-09-11T11:04:25.068Z,94660.28
2022-09-11T11:07:07.896Z,94665.47
2022-09-11T11:09:40.922Z,94682.59
2022-09-11T11:12:20.646Z,94386.31
2022-09-11T11:15:04.912Z,95051.53
2022-09-11T11:17:55.685Z,95215.31
2022-09-11T11:20:48.397Z,95535.59
2022-09-11T11:23:21.297Z,95429.56
2022-09-11T11:26:11.640Z,95276.91
2022-09-11T11:28:44.128Z,95598.13
2022-09-11T11:31:52.816Z,96075.22
2022-09-11T11:34:22.258Z,96099.75
2022-09-11T11:36:54.009Z,95912.13
2022-09-11T11:39:38.847Z,96043.84
2022-09-11T11:42:26.873Z,96089.66
2022-09-11T11:45:00.300Z,96203.69
2022-09-11T11:47:30.613Z,96810.69
2022-09-11T11:50:05.281Z,97025.75
2022-09-11T11:52:31.804Z,97030.22
2022-09-11T11:55:12.395Z,96958.75
2022-09-11T11:57:41.555Z,97142.91
2022-09-11T12:00:13.098Z,97477.84
2022-09-11T12:02:56.397Z,97579.91
2022-09-11T12:05:27.505Z,97620.06
2022-09-11T12:07:53.903Z,97766.81
2022-09-11T12:10:26.261Z,97761.84
2022-09-11T12:12:55.209Z,97876.00
2022-09-11T12:15:25.992Z,97808.31
2022-09-11T12:18:24.841Z,97996.88
2022-09-11T12:20:51.386Z,98034.63
2022-09-11T12:23:29.913Z,98742.31
2022-09-11T12:26:26.035Z,99656.81
2022-09-11T12:29:14.510Z,99613.16
2022-09-11T12:31:49.784Z,99675.97
2022-09-11T12:34:17.448Z,99741.00
2022-09-11T12:36:48.264Z,99818.78
2022-09-11T12:39:54.628Z,100020.94
2022-09-11T12:42:24.024Z,100265.28
2022-09-11T12:44:50.429Z,100236.47
2022-09-11T12:47:27.424Z,100271.91
2022-09-11T12:50:16.134Z,100347.13
2022-09-11T12:52:45.541Z,100378.88
2022-09-11T12:55:27.075Z,100413.41
2022-09-11T12:57:53.458Z,100400.50
2022-09-11T13:00:24.470Z,100442.34
2022-09-11T13:02:53.232Z,100389.59
2022-09-11T13:05:30.089Z,100396.34
2022-09-11T13:07:57.907Z,100589.22
2022-09-11T13:10:33.472Z,100768.03
2022-09-11T13:13:02.399Z,100734.06
2022-09-11T13:15:33.238Z,100728.09
2022-09-11T13:17:59.744Z,100739.91
2022-09-11T13:20:26.215Z,100832.06
2022-09-11T13:22:57.604Z,100815.34
2022-09-11T13:25:27.919Z,100815.94
2022-09-11T13:27:59.683Z,100760.16
2022-09-11T13:30:26.904Z,100762.47
2022-09-11T13:33:07.524Z,100729.41
2022-09-11T13:35:34.254Z,100768.97
2022-09-11T13:38:10.955Z,100921.56
2022-09-11T13:40:47.485Z,100963.19
2022-09-11T13:43:20.173Z,100963.56
2022-09-11T13:45:46.680Z,100966.19
2022-09-11T13:48:20.250Z,100950.78
2022-09-11T13:50:48.420Z,100955.03
2022-09-11T13:53:14.827Z,100960.28
2022-09-11T13:55:45.772Z,100963.03
2022-09-11T13:58:26.077Z,100978.66
2022-09-11T14:00:52.771Z,100966.19
2022-09-11T14:03:29.428Z,100972.47
2022-09-11T14:05:58.004Z,100940.00
2022-09-11T14:08:35.902Z,100923.31
2022-09-11T14:11:11.640Z,100880.56
2022-09-11T14:13:51.385Z,100862.34
2022-09-11T14:16:32.042Z,100832.94
2022-09-11T14:19:11.157Z,100797.88
2022-09-11T14:21:38.843Z,100754.22
2022-09-11T14:24:16.424Z,100746.13
2022-09-11T14:26:42.840Z,100672.41
2022-09-11T14:29:12.846Z,100700.56
2022-09-11T14:31:40.628Z,100806.50
2022-09-11T14:34:10.024Z,100814.38
2022-09-11T14:36:47.292Z,100834.69
2022-09-11T14:39:23.683Z,100889.72
2022-09-11T14:41:50.072Z,100860.28
2022-09-11T14:44:16.661Z,100822.16
2022-09-11T14:46:43.334Z,100787.19
2022-09-11T14:49:10.212Z,100782.63
2022-09-11T14:51:37.599Z,100761.69
2022-09-11T14:54:08.968Z,100728.16
2022-09-11T14:56:35.364Z,100749.47
2022-09-11T14:59:01.776Z,100775.56
2022-09-11T15:01:28.245Z,100833.13
2022-09-11T15:03:55.311Z,100864.03
2022-09-11T15:06:21.999Z,100848.19
2022-09-11T15:08:48.464Z,100853.44
2022-09-11T15:11:15.847Z,100842.84
2022-09-11T15:14:04.088Z,100893.28
2022-09-11T15:16:30.707Z,100909.13
2022-09-11T15:18:57.112Z,100902.41
2022-09-11T15:21:23.495Z,100908.88
2022-09-11T15:23:50.028Z,100909.41
2022-09-11T15:26:16.431Z,100921.31
2022-09-11T15:28:42.923Z,100921.56
2022-09-11T15:31:11.018Z,100937.19
2022-09-11T15:33:37.605Z,100941.25
2022-09-11T15:36:05.034Z,100939.75
2022-09-11T15:38:32.138Z,100941.03
2022-09-11T15:40:58.628Z,100918.25
2022-09-11T15:43:26.022Z,100932.34
2022-09-11T15:45:52.640Z,100937.16
2022-09-11T15:48:19.975Z,100939.31
2022-09-11T15:50:46.388Z,100954.22
2022-09-11T15:53:13.216Z,100951.44
2022-09-11T15:55:39.599Z,100929.22
2022-09-11T15:58:06.071Z,100926.69
2022-09-11T16:00:33.938Z,100939.88
2022-09-11T16:03:00.415Z,100949.50
2022-09-11T16:05:26.908Z,100961.72
2022-09-11T16:07:53.293Z,100955.25
2022-09-11T16:10:20.905Z,100956.34
2022-09-11T16:12:47.934Z,100963.00
2022-09-11T16:15:17.785Z,100946.50
2022-09-11T16:17:44.898Z,100951.88
2022-09-11T16:20:12.747Z,100959.00
2022-09-11T16:22:39.159Z,100942.53
2022-09-11T16:25:05.918Z,100928.00
2022-09-11T16:27:34.586Z,100928.19
2022-09-11T16:30:41.548Z,100923.47
2022-09-11T16:32:48.801Z,100920.91
2022-09-11T16:35:15.290Z,100916.38
2022-09-11T16:37:41.823Z,100932.66
2022-09-11T16:40:09.515Z,100920.38
2022-09-11T16:42:36.751Z,100909.44
2022-09-11T16:45:03.411Z,100899.22
2022-09-11T16:47:30.527Z,100909.66
2022-09-11T16:50:12.324Z,100939.25
2022-09-11T16:52:39.290Z,100921.72
2022-09-11T16:55:07.022Z,100917.78
2022-09-11T16:57:35.391Z,100925.88
2022-09-11T17:00:02.055Z,100913.88
2022-09-11T17:02:28.443Z,100920.09
2022-09-11T17:04:54.876Z,100920.19
2022-09-11T17:07:21.252Z,100905.53
2022-09-11T17:09:48.350Z,100860.88
2022-09-11T17:12:17.596Z,100883.75
2022-09-11T17:14:44.003Z,100846.25
2022-09-11T17:17:10.553Z,100779.88
2022-09-11T17:19:36.973Z,100771.88
2022-09-11T17:22:03.915Z,100759.28
2022-09-11T17:24:32.042Z,100724.34
2022-09-11T17:26:58.849Z,100639.16
2022-09-11T17:29:25.232Z,100685.00
2022-09-11T17:32:05.119Z,100693.28
2022-09-11T17:34:38.086Z,100691.66
2022-09-11T17:37:04.981Z,100688.63
2022-09-11T17:39:31.381Z,100632.16
2022-09-11T17:41:57.757Z,100648.91
2022-09-11T17:44:24.758Z,100602.00
2022-09-11T17:46:52.108Z,100555.81
2022-09-11T17:49:18.497Z,100491.69
2022-09-11T17:51:44.864Z,100363.97
2022-09-11T17:54:11.241Z,100435.59
2022-09-11T17:56:37.706Z,100397.59
2022-09-11T17:59:04.060Z,100251.03
2022-09-11T18:01:31.609Z,99826.13
2022-09-11T18:03:58.516Z,99090.34
2022-09-11T18:06:33.974Z,98717.13
2022-09-11T18:09:05.963Z,98491.38
2022-09-11T18:11:32.656Z,98406.44
2022-09-11T18:14:00.050Z,98284.22
2022-09-11T18:16:26.576Z,98064.13
2022-09-11T18:18:53.053Z,97873.50
2022-09-11T18:21:19.452Z,97768.22
2022-09-11T18:23:46.502Z,97650.22
2022-09-11T18:26:25.641Z,97546.00
2022-09-11T18:29:14.331Z,97436.50
2022-09-11T18:31:45.015Z,97363.63
2022-09-11T18:34:16.783Z,97314.28
2022-09-11T18:36:43.423Z,97276.69
2022-09-11T18:39:10.086Z,97243.78
2022-09-11T18:41:36.945Z,97186.69
2022-09-11T18:44:06.395Z,97121.00
2022-09-11T18:46:32.934Z,96979.06
2022-09-11T18:49:00.012Z,96978.91
2022-09-11T18:51:27.054Z,96934.78
2022-09-11T18:53:54.314Z,96894.78
2022-09-11T18:56:22.575Z,96845.22
2022-09-11T18:58:50.427Z,96827.72
2022-09-11T19:01:17.899Z,96808.91
2022-09-11T19:03:44.436Z,96773.53
2022-09-11T19:06:14.043Z,96753.38
2022-09-11T19:08:41.452Z,96723.63
2022-09-11T19:11:09.277Z,96679.69
2022-09-11T19:13:36.461Z,96685.66
2022-09-11T19:16:04.182Z,96675.75
2022-09-11T19:18:31.495Z,96614.63
2022-09-11T19:21:02.952Z,96569.41
2022-09-11T19:23:33.552Z,96488.81
2022-09-11T19:26:22.764Z,96462.38
2022-09-11T19:28:49.619Z,96448.88
2022-09-11T19:31:18.172Z,96428.09
2022-09-11T19:33:44.631Z,96397.09
2022-09-11T19:36:16.671Z,96351.53
2022-09-11T19:38:44.098Z,96302.97
2022-09-11T19:41:12.822Z,96227.16
2022-09-11T19:43:40.918Z,96211.09
2022-09-11T19:46:09.306Z,96168.81
2022-09-11T19:48:39.068Z,96138.78
2022-09-11T19:51:09.884Z,96114.59
2022-09-11T19:53:37.116Z,96112.63
2022-09-11T19:56:03.551Z,96067.94
2022-09-11T19:58:30.092Z,96049.69
2022-09-11T20:00:56.594Z,96021.63
2022-09-11T20:03:23.072Z,95985.25
2022-09-11T20:05:49.874Z,95980.97
2022-09-11T20:08:17.217Z,95989.09
2022-09-11T20:10:45.377Z,95971.19
2022-09-11T20:13:11.789Z,95979.59
2022-09-11T20:15:38.741Z,95961.03
2022-09-11T20:18:05.225Z,95917.06
2022-09-11T20:20:32.599Z,95896.06
2022-09-11T20:23:00.427Z,95900.50
2022-09-11T20:25:27.136Z,95879.13
2022-09-11T20:27:53.656Z,95837.22
2022-09-11T20:30:20.051Z,95785.19
2022-09-11T20:32:46.534Z,95752.28
2022-09-11T20:35:12.931Z,95711.41
2022-09-11T20:37:39.322Z,95694.31
2022-09-11T20:40:07.316Z,95668.72
2022-09-11T20:42:33.742Z,95643.47
2022-09-11T20:45:00.680Z,95648.13
2022-09-11T20:47:27.576Z,95642.22
2022-09-11T20:49:53.962Z,95614.59
2022-09-11T20:52:20.396Z,95594.31
2022-09-11T20:54:48.906Z,95550.81
2022-09-11T20:57:15.274Z,95519.94
2022-09-11T20:59:43.313Z,95515.09
2022-09-11T21:02:10.973Z,95525.00
2022-09-11T21:04:37.739Z,95480.56
2022-09-11T21:07:04.211Z,95424.53
2022-09-11T21:09:30.898Z,95331.19
2022-09-11T21:11:57.292Z,95093.19
2022-09-11T21:14:23.703Z,95054.03
2022-09-11T21:16:50.088Z,95019.94
2022-09-11T21:19:16.725Z,94995.41
2022-09-11T21:21:43.172Z,94946.09
2022-09-11T21:24:11.631Z,94904.72
2022-09-11T21:26:38.052Z,94837.03
2022-09-11T21:29:06.487Z,94813.50
2022-09-11T21:31:33.243Z,94829.75
2022-09-11T21:33:59.849Z,94856.94
2022-09-11T21:36:26.431Z,94854.13
2022-09-11T21:38:53.191Z,94887.78
2022-09-11T21:41:19.612Z,94886.16
2022-09-11T21:43:46.330Z,94868.75
2022-09-11T21:46:13.042Z,94895.94
2022-09-11T21:48:40.425Z,94902.44
2022-09-11T21:51:10.031Z,94869.16
2022-09-11T21:53:37.531Z,94871.59
2022-09-11T21:56:04.027Z,94877.31
2022-09-11T21:58:30.986Z,94861.91
2022-09-11T22:01:02.530Z,94857.03
2022-09-11T22:03:29.008Z,94847.34
2022-09-11T22:05:55.608Z,94892.78
2022-09-11T22:08:22.177Z,94866.84
2022-09-11T22:10:49.857Z,94840.91
2022-09-11T22:13:19.728Z,94816.59
2022-09-11T22:15:49.218Z,94816.19
2022-09-11T22:18:16.180Z,94808.91
2022-09-11T22:20:42.863Z,94814.59
2022-09-11T22:23:13.453Z,94820.69
2022-09-11T22:25:40.802Z,94783.22
2022-09-11T22:28:07.312Z,94777.13
2022-09-11T22:30:33.723Z,94764.16
2022-09-11T22:33:00.333Z,94772.88
2022-09-11T22:35:27.079Z,94780.16
2022-09-11T22:37:53.457Z,94792.75
2022-09-11T22:40:19.821Z,94807.91
2022-09-11T22:42:46.213Z,94799.22
2022-09-11T22:45:12.584Z,94787.06
2022-09-11T22:47:38.959Z,94821.50
2022-09-11T22:50:05.906Z,94817.03
2022-09-11T22:52:32.300Z,94797.19
2022-09-11T22:54:58.679Z,94803.47
2022-09-11T22:57:28.859Z,94824.34
2022-09-11T22:59:55.974Z,94828.00
2022-09-11T23:02:22.398Z,94812.59
2022-09-11T23:05:07.555Z,94836.09
2022-09-11T23:07:34.730Z,94866.06
2022-09-11T23:10:01.791Z,94855.94
2022-09-11T23:12:28.237Z,94840.13
2022-09-11T23:14:54.673Z,94836.91
2022-09-11T23:17:21.116Z,94836.91
2022-09-11T23:19:48.026Z,94855.94
2022-09-11T23:22:14.409Z,94837.31
2022-09-11T23:24:40.805Z,94755.75
2022-09-11T23:27:07.191Z,94739.38
2022-09-11T23:29:33.575Z,94732.88
2022-09-11T23:32:00.140Z,94755.94
2022-09-11T23:34:26.526Z,94790.78
2022-09-11T23:36:52.996Z,94798.66
2022-09-11T23:39:19.390Z,94823.34
2022-09-11T23:41:45.847Z,94851.06
2022-09-11T23:44:12.253Z,94868.47
2022-09-11T23:46:38.634Z,94853.50
2022-09-11T23:49:06.367Z,94869.88
2022-09-11T23:51:32.813Z,94885.44
2022-09-11T23:53:59.185Z,94897.38
2022-09-11T23:56:25.613Z,94921.44
2022-09-11T23:58:52.230Z,94946.53
